Home > Products > Valid Products > MTR

000
SAUS46 KSGX 251454
MTRCZZ
METAR KCZZ 251452Z AUTO 00000KT 27/09 A2994 RMK AO1 SLP097 T02670094
51009





000
SAUS46 KSGX 251452
MTRSAN
METAR KSAN 251451Z 24003KT 10SM FEW012 BKN160 BKN190 21/17 A2990 RMK
AO2 SLP124 CB NE MOV N VCSH T02110172 53004





000
SAUS46 KSGX 251354
MTRCZZ
METAR KCZZ 251352Z AUTO 05003KT 23/11 A2994 RMK AO1 SLP097 T02280111





000
SAUS46 KSGX 251352
MTRSAN
METAR KSAN 251351Z 23004KT 10SM FEW013 BKN070 BKN180 21/17 A2989 RMK
AO2 SLP121 VIRGA E T02060172





000
SAUS46 KSGX 251254
MTRCZZ
METAR KCZZ 251252Z AUTO 05003KT 20/13 A2993 RMK AO1 SLP093 T02000128





000
SAUS46 KSGX 251252
MTRSAN
METAR KSAN 251251Z 18003KT 10SM FEW013 BKN070 BKN180 21/17 A2988 RMK
AO2 SLP119 T02060172 $





000
SAUS46 KSGX 251230
MTRSAN
SPECI KSAN 251229Z 17004KT 10SM SCT013 BKN070 BKN180 21/17 A2988 RMK
AO2 $





000
SAUS46 KSGX 251154
MTRCZZ
METAR KCZZ 251152Z AUTO 03003KT 21/12 A2991 RMK AO1 SLP085 T02110117
10244 20200 56004





000
SAUS46 KSGX 251152
MTRSAN
METAR KSAN 251151Z 16007KT 10SM OVC013 21/17 A2989 RMK AO2 SLP120
T02060172 10222 20206 55001 $





000
SAUS46 KSGX 251053
MTRCZZ
METAR KCZZ 251052Z AUTO 04003KT 21/09 A2991 RMK AO1 SLP085 T02110089





000
SAUS46 KSGX 251052
MTRSAN
METAR KSAN 251051Z 16008KT 10SM SCT007 OVC013 21/17 A2988 RMK AO2
SLP119 T02060172 $





000
SAUS46 KSGX 250953
MTRCZZ
METAR KCZZ 250952Z AUTO 00000KT 20/09 A2991 RMK AO1 SLP086 T02000094





000
SAUS46 KSGX 250952
MTRSAN
METAR KSAN 250951Z 17008KT 10SM SCT007 OVC013 21/18 A2988 RMK AO2
SLP118 T02060178 $





000
SAUS46 KSGX 250854
MTRCZZ
METAR KCZZ 250852Z AUTO 00000KT 21/09 A2993 RMK AO1 SLP088 T02110094
50001





000
SAUS46 KSGX 250852
MTRSAN
METAR KSAN 250851Z 16011KT 9SM SCT007 OVC010 21/18 A2989 RMK AO2
SLP121 T02110178 50009 $





000
SAUS46 KSGX 250825
MTRSAN
SPECI KSAN 250824Z 16011KT 9SM SCT007 OVC010 21/18 A2989 RMK AO2 $





000
SAUS46 KSGX 250754
MTRCZZ
METAR KCZZ 250752Z AUTO 04004KT 21/09 A2994 RMK AO1 SLP095 T02110094
404060156





000
SAUS46 KSGX 250752
MTRSAN
METAR KSAN 250751Z 17011KT 9SM BKN007 OVC010 22/19 A2990 RMK AO2
SLP124 T02170189 402720206 $





000
SAUS46 KSGX 250706
MTRSAN
SPECI KSAN 250704Z 18009KT 9SM BKN007 OVC010 22/19 A2989 RMK AO2 $





000
SAUS46 KSGX 250654
MTRCZZ
METAR KCZZ 250652Z AUTO 00000KT 22/10 A2994 RMK AO1 SLP094 T02170100





000
SAUS46 KSGX 250652
MTRSAN
METAR KSAN 250651Z 17007KT 9SM SCT007 BKN010 BKN200 22/19 A2988 RMK
AO2 SLP119 T02220194 $





000
SAUS46 KSGX 250559
MTRSAN
SPECI KSAN 250558Z 18005KT 8SM SCT007 BKN011 BKN200 22/19 A2987 RMK
AO2 $





000
SAUS46 KSGX 250553
MTRCZZ
METAR KCZZ 250552Z AUTO 01004KT 24/11 A2992 RMK AO1 SLP087 T02440111
10383 20228 51018





000
SAUS46 KSGX 250552
MTRSAN
METAR KSAN 250551Z 19006KT 9SM BKN007 BKN011 BKN200 22/19 A2986 RMK
AO2 SLP112 T02220194 10272 20222 51021 $





000
SAUS46 KSGX 250518
MTRSAN
SPECI KSAN 250517Z 17006KT 9SM BKN007 BKN200 22/19 A2986 RMK AO2 $





000
SAUS46 KSGX 250454
MTRCZZ
METAR KCZZ 250452Z AUTO 00000KT 27/11 A2992 RMK AO1 SLP086 T02670111





000
SAUS46 KSGX 250452
MTRSAN
METAR KSAN 250451Z 18007KT 10SM FEW008 SCT220 22/19 A2985 RMK AO2
SLP109 T02220194 $





000
SAUS46 KSGX 250444
MTRSAN
SPECI KSAN 250442Z 17006KT 10SM FEW008 SCT220 22/19 A2985 RMK AO2 $





000
SAUS46 KSGX 250354
MTRCZZ
METAR KCZZ 250352Z AUTO 21005KT 27/13 A2989 RMK AO1 SLP080 T02670128





000
SAUS46 KSGX 250352
MTRSAN
METAR KSAN 250351Z 22004KT 10SM FEW010 SCT220 23/19 A2983 RMK AO2
SLP100 T02280194 $





000
SAUS46 KSGX 250254
MTRCZZ
METAR KCZZ 250252Z AUTO 23009KT 29/12 A2987 RMK AO1 SLP072 T02940122
53012





000
SAUS46 KSGX 250252
MTRSAN
METAR KSAN 250251Z 30003KT 10SM FEW010 SCT220 23/19 A2980 RMK AO2
SLP091 T02330189 53009 $





000
SAUS46 KSGX 250154
MTRCZZ
METAR KCZZ 250152Z AUTO 21014KT 32/12 A2983 RMK AO1 SLP064 T03220117





000
SAUS46 KSGX 250152
MTRSAN
METAR KSAN 250151Z 31006KT 10SM FEW010 SCT250 26/18 A2977 RMK AO2
SLP081 T02560178 $





000
SAUS46 KSGX 250054
MTRCZZ
METAR KCZZ 250052Z AUTO 22012KT 36/11 A2983 RMK AO1 SLP060 T03560106





000
SAUS46 KSGX 250052
MTRSAN
METAR KSAN 250051Z 30007KT 10SM FEW010 SCT070 SCT250 27/16 A2977 RMK
AO2 SLP080 T02720161 $





000
SAUS46 KSGX 242354
MTRCZZ
METAR KCZZ 242352Z AUTO 29009KT 38/07 A2983 RMK AO1 SLP059 T03780072
10406 20372 56011





000
SAUS46 KSGX 242352
MTRSAN
METAR KSAN 242351Z 30008KT 10SM FEW010 SCT070 SCT250 27/18 A2978 RMK
AO2 SLP083 T02670178 10272 20244 58014 $





000
SAUS46 KSGX 242254
MTRCZZ
METAR KCZZ 242252Z AUTO 29010KT 39/07 A2984 RMK AO1 SLP061 T03890072





000
SAUS46 KSGX 242252
MTRSAN
METAR KSAN 242251Z 29008KT 10SM FEW010 SCT070 SCT250 27/17 A2979 RMK
AO2 SLP087 T02670172 $





000
SAUS46 KSGX 242154
MTRCZZ
METAR KCZZ 242152Z AUTO 23012KT 39/07 A2985 RMK AO1 SLP067 T03890067





000
SAUS46 KSGX 242152
MTRSAN
METAR KSAN 242151Z 28008KT 10SM FEW010 SCT070 SCT250 27/18 A2981 RMK
AO2 SLP095 T02670178





000
SAUS46 KSGX 242054
MTRCZZ
METAR KCZZ 242052Z AUTO 24011KT 39/07 A2986 RMK AO1 SLP069 T03940072
58012





000
SAUS46 KSGX 242052
MTRSAN
METAR KSAN 242051Z 31008G15KT 10SM FEW010 SCT070 SCT250 27/17 A2982
RMK AO2 SLP097 T02670172 58012 $





000
SAUS46 KSGX 241956
MTRSAN
METAR KSAN 241951Z 28007KT 10SM FEW010 SCT070 SCT250 26/18 A2983 RMK
AO2 SLP102 T02610178 $





000
SAUS46 KSGX 241953
MTRCZZ
METAR KCZZ 241952Z AUTO 23011KT 39/04 A2987 RMK AO1 SLP073 T03940044





000
SAUS46 KSGX 241853
MTRCZZ
METAR KCZZ 241852Z AUTO 22010KT 38/06 A2989 RMK AO1 SLP080 T03830056





000
SAUS46 KSGX 241852
MTRSAN
METAR KSAN 241851Z VRB04KT 10SM FEW012 SCT070 SCT250 26/18 A2984 RMK
AO2 SLP106 T02560178





000
SAUS46 KSGX 241753
MTRCZZ
METAR KCZZ 241752Z AUTO 22009KT 37/02 A2990 RMK AO1 SLP083 T03720022
10372 20156 58013





000
SAUS46 KSGX 241752
MTRSAN
METAR KSAN 241751Z 29006KT 10SM FEW012 SCT250 25/18 A2985 RMK AO2
SLP108 T02500178 10250 20206 58010





000
SAUS46 KSGX 241653
MTRCZZ
METAR KCZZ 241652Z AUTO 23004KT 36/M02 A2992 RMK AO1 SLP090
T03561022





000
SAUS46 KSGX 241652
MTRSAN
METAR KSAN 241651Z 00000KT 10SM FEW012 SCT250 23/18 A2987 RMK AO2
SLP115 T02330178





000
SAUS46 KSGX 241553
MTRCZZ
METAR KCZZ 241552Z AUTO 00000KT 31/04 A2994 RMK AO1 SLP096 T03110039





000
SAUS46 KSGX 241552
MTRSAN
METAR KSAN 241551Z VRB05KT 10SM FEW010 SCT250 22/18 A2988 RMK AO2
SLP119 T02220178





000
SAUS46 KSGX 241531
MTRSAN
SPECI KSAN 241530Z 31005KT 10SM SCT010 SCT250 22/18 A2988 RMK AO2





000
SAUS46 KSGX 241504
MTRSAN
SPECI KSAN 241503Z 29004KT 9SM BKN010 BKN250 22/18 A2988 RMK AO2





000
SAUS46 KSGX 241453
MTRCZZ
METAR KCZZ 241452Z AUTO 00000KT 26/06 A2994 RMK AO1 SLP099 T02610061
53002





000
SAUS46 KSGX 241452
MTRSAN
METAR KSAN 241451Z 00000KT 8SM BKN008 BKN250 22/18 A2988 RMK AO2
SLP119 T02170183 53004





000
SAUS46 KSGX 241428
MTRSAN
SPECI KSAN 241427Z 00000KT 7SM FEW005 BKN008 21/18 A2988 RMK AO2





000
SAUS46 KSGX 241353
MTRCZZ
METAR KCZZ 241352Z AUTO 04005KT 19/06 A2994 RMK AO1 SLP103 T01940056





000
SAUS46 KSGX 241352
MTRSAN
METAR KSAN 241351Z 00000KT 8SM FEW004 BKN007 BKN250 21/18 A2987 RMK
AO2 SLP116 T02110183 $





000
SAUS46 KSGX 241317
MTRSAN
SPECI KSAN 241316Z 01004KT 8SM BKN007 BKN250 21/18 A2986 RMK AO2 $





000
SAUS46 KSGX 241253
MTRCZZ
METAR KCZZ 241252Z AUTO 04004KT 17/06 A2993 RMK AO1 SLP097 T01720061





000
SAUS46 KSGX 241253
MTRSAN
METAR KSAN 241251Z 33005KT 9SM SCT007 SCT250 21/18 A2986 RMK AO2
SLP111 T02060183 $





000
SAUS46 KSGX 241237
MTRSAN
SPECI KSAN 241236Z 36003KT 8SM SCT007 SCT250 21/18 A2987 RMK AO2 $





000
SAUS46 KSGX 241153
MTRSAN
METAR KSAN 241151Z 00000KT 9SM BKN007 21/18 A2987 RMK AO2 SLP114
T02060183 10217 20206 56007 $





000
SAUS46 KSGX 241153
MTRCZZ
METAR KCZZ 241152Z AUTO 06006KT 17/07 A2994 RMK AO1 SLP099 T01670067
10211 20161 56005





000
SAUS46 KSGX 241120
MTRSAN
SPECI KSAN 241119Z 00000KT 10SM BKN007 21/18 A2987 RMK AO2 $





000
SAUS46 KSGX 241053
MTRCZZ
METAR KCZZ 241052Z AUTO 05005KT 17/07 A2994 RMK AO1 SLP099 T01720072





000
SAUS46 KSGX 241053
MTRSAN
METAR KSAN 241051Z 00000KT 10SM FEW007 21/18 A2987 RMK AO2 SLP114
T02110183 $





000
SAUS46 KSGX 240953
MTRCZZ
METAR KCZZ 240952Z AUTO 06006KT 17/07 A2995 RMK AO1 SLP100 T01720072





000
SAUS46 KSGX 240952
MTRSAN
METAR KSAN 240951Z 00000KT 9SM FEW007 21/19 A2988 RMK AO2 SLP118
T02110189 $





000
SAUS46 KSGX 240931
MTRSAN
SPECI KSAN 240929Z 34003KT 9SM SCT007 21/19 A2988 RMK AO2 $





000
SAUS46 KSGX 240909
MTRSAN
SPECI KSAN 240908Z 34003KT 9SM BKN007 21/19 A2989 RMK AO2 $





000
SAUS46 KSGX 240859
MTRSAN
SPECI KSAN 240858Z 00000KT 9SM SCT007 21/19 A2989 RMK AO2 $





000
SAUS46 KSGX 240853
MTRCZZ
METAR KCZZ 240852Z AUTO 03004KT 18/08 A2995 RMK AO1 SLP103 T01780078
58011





000
SAUS46 KSGX 240852
MTRSAN
METAR KSAN 240851Z 00000KT 9SM FEW010 21/19 A2989 RMK AO2 SLP122
T02110189 58012 $





000
SAUS46 KSGX 240753
MTRCZZ
METAR KCZZ 240752Z AUTO 04004KT 19/08 A2997 RMK AO1 SLP108 T01890083
403720111





000
SAUS46 KSGX 240752
MTRSAN
METAR KSAN 240751Z 31003KT 9SM FEW010 21/18 A2991 RMK AO2 SLP127
T02110183 402720194 $





000
SAUS46 KSGX 240653
MTRCZZ
METAR KCZZ 240652Z AUTO 04003KT 19/08 A2998 RMK AO1 SLP113 T01890083





000
SAUS46 KSGX 240652
MTRSAN
METAR KSAN 240651Z 30004KT 10SM FEW010 22/18 A2992 RMK AO2 SLP132
T02170183 $





000
SAUS46 KSGX 240554
MTRCZZ
METAR KCZZ 240552Z AUTO 06005KT 21/10 A2999 RMK AO1 SLP116 T02060100
10356 20200 51007





000
SAUS46 KSGX 240552
MTRSAN
METAR KSAN 240551Z 28005KT 9SM FEW010 22/18 A2993 RMK AO2 SLP134
T02170183 10261 20217 53007 $





000
SAUS46 KSGX 240453
MTRCZZ
METAR KCZZ 240452Z AUTO 36003KT 22/10 A2999 RMK AO1 SLP116 T02220100





000
SAUS46 KSGX 240452
MTRSAN
METAR KSAN 240451Z 29004KT 10SM FEW010 SCT250 22/18 A2992 RMK AO2
SLP133 T02220178 $





000
SAUS46 KSGX 240353
MTRCZZ
METAR KCZZ 240352Z AUTO 21003KT 25/12 A2997 RMK AO1 SLP112 T02500122





000
SAUS46 KSGX 240352
MTRSAN
METAR KSAN 240351Z 30004KT 10SM FEW010 SCT250 23/17 A2991 RMK AO2
SLP127 T02280172 $





000
SAUS46 KSGX 240253
MTRCZZ
METAR KCZZ 240252Z AUTO 23008KT 27/12 A2996 RMK AO1 SLP112 T02670122
53005





000
SAUS46 KSGX 240252
MTRSAN
METAR KSAN 240251Z 32005KT 10SM FEW010 SCT250 23/18 A2991 RMK AO2
SLP127 T02330178 55003 $





000
SAUS46 KSGX 240153
MTRCZZ
METAR KCZZ 240152Z AUTO 22013KT 30/11 A2995 RMK AO1 SLP108 T03000111





000
SAUS46 KSGX 240152
MTRSAN
METAR KSAN 240151Z 31008KT 10SM FEW010 SCT250 24/17 A2990 RMK AO2
SLP125 T02440172 $





000
SAUS46 KSGX 240053
MTRCZZ
METAR KCZZ 240052Z AUTO 30008KT 34/04 A2995 RMK AO1 SLP107 T03440044





000
SAUS46 KSGX 240052
MTRSAN
METAR KSAN 240051Z 30009KT 10SM FEW010 SCT250 25/17 A2991 RMK AO2
SLP129 T02500172 $





000
SAUS46 KSGX 232353
MTRCZZ
METAR KCZZ 232352Z AUTO 30013KT 36/05 A2995 RMK AO1 SLP106 T03560050
10372 20317 56013





000
SAUS46 KSGX 232352
MTRSAN
METAR KSAN 232351Z 29011KT 10SM FEW010 SCT250 26/17 A2992 RMK AO2
SLP130 T02610167 10272 20250 56017 $





000
SAUS46 KSGX 232253
MTRCZZ
METAR KCZZ 232252Z AUTO 28011KT 37/05 A2996 RMK AO1 SLP109 T03670050





000
SAUS46 KSGX 232252
MTRSAN
METAR KSAN 232251Z 30009KT 10SM FEW010 SCT250 26/17 A2993 RMK AO2
SLP134 T02610167 $





000
SAUS46 KSGX 232153
MTRCZZ
METAR KCZZ 232152Z AUTO 29011KT 37/06 A2997 RMK AO1 SLP113 T03720061





000
SAUS46 KSGX 232152
MTRSAN
METAR KSAN 232151Z 31008KT 10SM FEW010 SCT250 27/16 A2995 RMK AO2
SLP141 T02670156 $





000
SAUS46 KSGX 232053
MTRCZZ
METAR KCZZ 232052Z AUTO 31013G19KT 280V340 37/04 A2999 RMK AO1
SLP119 T03670044 58013





000
SAUS46 KSGX 232052
MTRSAN
METAR KSAN 232051Z 30011KT 10SM FEW250 26/16 A2996 RMK AO2 SLP147
T02610156 58015





000
SAUS46 KSGX 231953
MTRCZZ
METAR KCZZ 231952Z AUTO 25008KT 36/01 A3000 RMK AO1 SLP121 T03610011





000
SAUS46 KSGX 231952
MTRSAN
METAR KSAN 231951Z 31008KT 10SM FEW070 SCT250 27/15 A2998 RMK AO2
SLP153 T02670150





000
SAUS46 KSGX 231853
MTRCZZ
METAR KCZZ 231852Z AUTO 25011G22KT 35/02 A3002 RMK AO1 SLP129
T03500017





000
SAUS46 KSGX 231852
MTRSAN
METAR KSAN 231851Z 29007KT 10SM FEW070 SCT250 27/14 A3000 RMK AO2
SLP157 T02670144





000
SAUS46 KSGX 231753
MTRCZZ
METAR KCZZ 231752Z AUTO 21011KT 32/08 A3003 RMK AO1 SLP134 T03220083
10322 20111 58005





000
SAUS46 KSGX 231752
MTRSAN
METAR KSAN 231751Z 30008KT 10SM FEW070 SCT250 25/16 A3001 RMK AO2
SLP162 T02500156 10256 20194 56003





000
SAUS46 KSGX 231653
MTRCZZ
METAR KCZZ 231652Z AUTO 19006KT 30/07 A3004 RMK AO1 SLP136 T03000067





000
SAUS46 KSGX 231652
MTRSAN
METAR KSAN 231651Z 28005KT 10SM FEW008 SCT250 24/16 A3001 RMK AO2
SLP162 T02440161





000
SAUS46 KSGX 231553
MTRCZZ
METAR KCZZ 231552Z AUTO 00000KT 26/08 A3005 RMK AO1 SLP140 T02610078





000
SAUS46 KSGX 231552
MTRSAN
METAR KSAN 231551Z 29005KT 10SM FEW008 23/17 A3002 RMK AO2 SLP164
T02280172





000
SAUS46 KSGX 231453
MTRCZZ
METAR KCZZ 231452Z AUTO 00000KT 21/09 A3005 RMK AO1 SLP143 T02060089
51005





000
SAUS46 KSGX 231452
MTRSAN
METAR KSAN 231451Z 36004KT 10SM FEW008 21/17 A3002 RMK AO2 SLP165
T02110167 53007





000
SAUS46 KSGX 231353
MTRCZZ
METAR KCZZ 231352Z AUTO 05004KT 14/07 A3005 RMK AO1 SLP143 T01440072





000
SAUS46 KSGX 231352
MTRSAN
METAR KSAN 231351Z 02003KT 10SM FEW008 20/17 A3002 RMK AO2 SLP164
T02000167





000
SAUS46 KSGX 231253
MTRCZZ
METAR KCZZ 231252Z AUTO 06006KT 13/08 A3004 RMK AO1 SLP139 T01280078





000
SAUS46 KSGX 231252
MTRSAN
METAR KSAN 231251Z 00000KT 10SM FEW008 19/17 A3000 RMK AO2 SLP158
T01940167





000
SAUS46 KSGX 231201
MTRSAN
SPECI KSAN 231201Z 00000KT 10SM SCT008 20/16 A3000 RMK AO2





000
SAUS46 KSGX 231153
MTRCZZ
METAR KCZZ 231152Z AUTO 05003KT 11/07 A3003 RMK AO1 SLP137 T01110072
10172 20111 56008





000
SAUS46 KSGX 231152
MTRSAN
METAR KSAN 231151Z 36004KT 10SM FEW010 20/17 A3000 RMK AO2 SLP158
T02000167 10217 20200 56008





000
SAUS46 KSGX 231053
MTRCZZ
METAR KCZZ 231052Z AUTO 06005KT 13/09 A3004 RMK AO1 SLP138 T01280089





000
SAUS46 KSGX 231052
MTRSAN
METAR KSAN 231051Z 00000KT 10SM CLR 20/17 A3000 RMK AO2 SLP159
T02000172





000
SAUS46 KSGX 230953
MTRCZZ
METAR KCZZ 230952Z AUTO 04005KT 14/09 A3005 RMK AO1 SLP142 T01390094





000
SAUS46 KSGX 230952
MTRSAN
METAR KSAN 230951Z 35003KT 10SM CLR 21/17 A3001 RMK AO2 SLP162
T02060172





000
SAUS46 KSGX 230853
MTRCZZ
METAR KCZZ 230852Z AUTO 05005KT 13/09 A3006 RMK AO1 SLP145 T01330094
58001





000
SAUS46 KSGX 230852
MTRSAN
METAR KSAN 230851Z 32004KT 10SM FEW012 21/17 A3002 RMK AO2 SLP166
T02060172 58001





000
SAUS46 KSGX 230753
MTRCZZ
METAR KCZZ 230752Z AUTO 04003KT 16/11 A3007 RMK AO1 SLP146 T01560106
403390078





000
SAUS46 KSGX 230752
MTRSAN
METAR KSAN 230751Z 33003KT 10SM FEW013 21/17 A3002 RMK AO2 SLP167
T02110172 402500206





000
SAUS46 KSGX 230653
MTRCZZ
METAR KCZZ 230652Z AUTO 05003KT 16/11 A3007 RMK AO1 SLP147 T01610106





000
SAUS46 KSGX 230652
MTRSAN
METAR KSAN 230651Z 35004KT 10SM FEW013 22/17 A3003 RMK AO2 SLP168
T02170172





000
SAUS46 KSGX 230553
MTRCZZ
METAR KCZZ 230552Z AUTO 03004KT 16/11 A3006 RMK AO1 SLP146 T01610106
10328 20161 50009





000
SAUS46 KSGX 230552
MTRSAN
METAR KSAN 230551Z 35005KT 10SM FEW013 22/17 A3003 RMK AO2 SLP167
T02170167 10250 20217 51007





000
SAUS46 KSGX 230453
MTRCZZ
METAR KCZZ 230452Z AUTO 04003KT 19/13 A3007 RMK AO1 SLP146 T01940133





000
SAUS46 KSGX 230452
MTRSAN
METAR KSAN 230451Z 33007KT 10SM FEW013 23/16 A3002 RMK AO2 SLP166
T02280156





000
SAUS46 KSGX 230353
MTRCZZ
METAR KCZZ 230352Z AUTO 22006KT 22/14 A3005 RMK AO1 SLP142 T02170139





000
SAUS46 KSGX 230353
MTRCZZ
METAR KCZZ 230352Z AUTO 22006KT 22/14 A3005 RMK AO1 SLP142 T02170139





000
SAUS46 KSGX 230352
MTRSAN
METAR KSAN 230351Z 34006KT 10SM FEW013 23/16 A3001 RMK AO2 SLP163
T02280156





000
SAUS46 KSGX 230352
MTRSAN
METAR KSAN 230351Z 34006KT 10SM FEW013 23/16 A3001 RMK AO2 SLP163
T02280156





000
SAUS46 KSGX 230253
MTRCZZ
METAR KCZZ 230252Z AUTO 21009KT 24/13 A3003 RMK AO1 SLP139 T02390133
53004





000
SAUS46 KSGX 230252
MTRSAN
METAR KSAN 230251Z 33008KT 10SM FEW014 SCT200 23/17 A3001 RMK AO2
SLP160 T02330172 55001





000
SAUS46 KSGX 230153
MTRCZZ
METAR KCZZ 230152Z AUTO 26008KT 29/11 A3002 RMK AO1 SLP135 T02890111





000
SAUS46 KSGX 230152
MTRSAN
METAR KSAN 230151Z 31007KT 10SM FEW014 SCT200 24/17 A3000 RMK AO2
SLP159 T02390172





000
SAUS46 KSGX 230053
MTRCZZ
METAR KCZZ 230052Z AUTO 29011KT 31/11 A3002 RMK AO1 SLP134 T03110111





000
SAUS46 KSGX 230052
MTRSAN
METAR KSAN 230051Z 29012KT 10SM FEW014 SCT180 24/18 A3000 RMK AO2
SLP159 T02440178





000
SAUS46 KSGX 222353
MTRCZZ
METAR KCZZ 222352Z AUTO 29011KT 33/10 A3002 RMK AO1 SLP133 T03280100
10339 20306 58005





000
SAUS46 KSGX 222352
MTRSAN
METAR KSAN 222351Z 32010KT 10SM FEW014 SCT200 24/17 A3001 RMK AO2
SLP162 T02440172 10250 20228 58010





000
SAUS46 KSGX 222253
MTRCZZ
METAR KCZZ 222252Z AUTO 30014G19KT 34/10 A3002 RMK AO1 SLP133
T03390100





000
SAUS46 KSGX 222252
MTRSAN
METAR KSAN 222251Z 29014KT 10SM FEW014 SCT200 24/17 A3002 RMK AO2
SLP166 T02440172





000
SAUS46 KSGX 222153
MTRCZZ
METAR KCZZ 222152Z AUTO 25009KT 33/09 A3004 RMK AO1 SLP138 T03280089





000
SAUS46 KSGX 222152
MTRSAN
METAR KSAN 222151Z 31010G20KT 270V340 10SM FEW014 SCT200 25/17 A3004
RMK AO2 SLP171 T02500172





000
SAUS46 KSGX 222053
MTRCZZ
METAR KCZZ 222052Z AUTO 23014G19KT 33/08 A3004 RMK AO1 SLP137
T03330078 58009





000
SAUS46 KSGX 222052
MTRSAN
METAR KSAN 222051Z 30010KT 10SM FEW014 SCT140 24/17 A3004 RMK AO2
SLP172 T02440167 58008





000
SAUS46 KSGX 221953
MTRCZZ
METAR KCZZ 221952Z AUTO 22017KT 33/08 A3004 RMK AO1 SLP139 T03280078





000
SAUS46 KSGX 221952
MTRSAN
METAR KSAN 221951Z 30010KT 10SM FEW014 SCT140 24/17 A3005 RMK AO2
SLP176 VIRGA SE T02440167





000
SAUS46 KSGX 221854
MTRCZZ
METAR KCZZ 221852Z AUTO 22011KT 32/03 A3006 RMK AO1 SLP146 T03170033





000
SAUS46 KSGX 221852
MTRSAN
METAR KSAN 221851Z 30010KT 10SM FEW014 SCT140 23/17 A3006 RMK AO2
SLP179 VIRGA OHD T02330167





000
SAUS46 KSGX 221753
MTRCZZ
METAR KCZZ 221752Z AUTO 22010KT 31/04 A3007 RMK AO1 SLP148 T03060039
10311 20078 58001





000
SAUS46 KSGX 221752
MTRSAN
METAR KSAN 221751Z 28011KT 10SM FEW014 SCT140 23/17 A3007 RMK AO2
SLP181 T02280167 10233 20206 50002 PNO $





000
SAUS46 KSGX 221653
MTRCZZ
METAR KCZZ 221652Z AUTO 00000KT 29/02 A3007 RMK AO1 SLP148 T02890017





000
SAUS46 KSGX 221652
MTRSAN
METAR KSAN 221651Z 32007KT 10SM SCT014 BKN140 23/17 A3007 RMK AO2
SLP183 T02280167 PNO $





000
SAUS46 KSGX 221553
MTRCZZ
METAR KCZZ 221552Z AUTO 00000KT 24/07 A3007 RMK AO1 SLP151 T02440072





000
SAUS46 KSGX 221552
MTRSAN
METAR KSAN 221551Z 31006KT 10SM FEW008 BKN014 22/17 A3007 RMK AO2
SLP182 T02220167





000
SAUS46 KSGX 221544
MTRSAN
SPECI KSAN 221542Z 00000KT 10SM FEW008 BKN014 22/17 A3007 RMK AO2





    US Dept of Commerce
    National Oceanic and Atmospheric Administration
    National Weather Service
    1325 East West Highway
    Silver Spring, MD 20910
    Page Author: NWS Internet Services Team
Disclaimer
Information Quality
Credits
Glossary
Privacy Policy
Freedom of Information Act (FOIA)
About Us
Career Opportunities